sensor_id;sensor_type;location;lat;lon;timestamp;pressure;altitude;pressure_sealevel;temperature;humidity
47785;BME280;35233;55.686;37.848;2023-04-30T00:00:47;100155.25;;;14.14;52.04
47785;BME280;35233;55.686;37.848;2023-04-30T00:03:12;100169.31;;;14.16;51.23
47785;BME280;35233;55.686;37.848;2023-04-30T00:05:38;100161.53;;;14.11;51.49
47785;BME280;35233;55.686;37.848;2023-04-30T00:08:03;100156.31;;;14.08;51.89
47785;BME280;35233;55.686;37.848;2023-04-30T00:10:29;100165.94;;;14.11;51.94
47785;BME280;35233;55.686;37.848;2023-04-30T00:12:55;100164.28;;;14.08;51.73
47785;BME280;35233;55.686;37.848;2023-04-30T00:15:21;100166.16;;;14.04;51.51
47785;BME280;35233;55.686;37.848;2023-04-30T00:17:47;100176.75;;;14.06;51.44
47785;BME280;35233;55.686;37.848;2023-04-30T00:20:12;100182.88;;;14.08;52.02
47785;BME280;35233;55.686;37.848;2023-04-30T00:22:38;100176.75;;;14.06;51.69
47785;BME280;35233;55.686;37.848;2023-04-30T00:25:03;100180.38;;;14.03;51.65
47785;BME280;35233;55.686;37.848;2023-04-30T00:27:29;100182.19;;;14.01;51.56
47785;BME280;35233;55.686;37.848;2023-04-30T00:29:56;100191.03;;;14.02;51.60
47785;BME280;35233;55.686;37.848;2023-04-30T00:32:22;100184.09;;;13.98;51.79
47785;BME280;35233;55.686;37.848;2023-04-30T00:34:47;100182.38;;;13.97;51.78
47785;BME280;35233;55.686;37.848;2023-04-30T00:37:13;100195.59;;;13.98;51.88
47785;BME280;35233;55.686;37.848;2023-04-30T00:39:38;100193.78;;;13.99;51.86
47785;BME280;35233;55.686;37.848;2023-04-30T00:42:04;100196.53;;;13.97;51.33
47785;BME280;35233;55.686;37.848;2023-04-30T00:44:29;100192.19;;;13.95;52.08
47785;BME280;35233;55.686;37.848;2023-04-30T00:46:55;100198.34;;;13.95;51.15
47785;BME280;35233;55.686;37.848;2023-04-30T00:49:20;100180.91;;;13.88;51.84
47785;BME280;35233;55.686;37.848;2023-04-30T00:51:46;100188.78;;;13.90;51.91
47785;BME280;35233;55.686;37.848;2023-04-30T00:54:12;100188.78;;;13.90;51.21
47785;BME280;35233;55.686;37.848;2023-04-30T00:56:38;100186.13;;;13.90;51.27
47785;BME280;35233;55.686;37.848;2023-04-30T00:59:05;100177.47;;;13.85;51.15
47785;BME280;35233;55.686;37.848;2023-04-30T01:01:30;100185.44;;;13.85;51.43
47785;BME280;35233;55.686;37.848;2023-04-30T01:03:56;100183.78;;;13.80;51.93
47785;BME280;35233;55.686;37.848;2023-04-30T01:06:22;100179.44;;;13.78;51.47
47785;BME280;35233;55.686;37.848;2023-04-30T01:08:49;100182.00;;;13.81;51.81
47785;BME280;35233;55.686;37.848;2023-04-30T01:14:06;100187.38;;;13.79;51.37
47785;BME280;35233;55.686;37.848;2023-04-30T01:16:39;100189.28;;;13.76;51.23
47785;BME280;35233;55.686;37.848;2023-04-30T01:21:52;100185.91;;;13.71;51.63
47785;BME280;35233;55.686;37.848;2023-04-30T01:29:38;100195.69;;;13.69;51.42
47785;BME280;35233;55.686;37.848;2023-04-30T01:32:04;100200.06;;;13.70;51.47
47785;BME280;35233;55.686;37.848;2023-04-30T01:34:29;100194.06;;;13.65;51.84
47785;BME280;35233;55.686;37.848;2023-04-30T01:42:51;100189.81;;;13.59;51.17
47785;BME280;35233;55.686;37.848;2023-04-30T01:48:37;100197.59;;;13.65;50.94
47785;BME280;35233;55.686;37.848;2023-04-30T01:51:09;100202.03;;;13.65;51.00
47785;BME280;35233;55.686;37.848;2023-04-30T01:53:40;100196.00;;;13.59;51.47
47785;BME280;35233;55.686;37.848;2023-04-30T01:56:10;100195.13;;;13.59;51.22
47785;BME280;35233;55.686;37.848;2023-04-30T01:58:37;100196.84;;;13.60;51.60
47785;BME280;35233;55.686;37.848;2023-04-30T02:01:04;100199.59;;;13.57;51.77
47785;BME280;35233;55.686;37.848;2023-04-30T02:03:31;100197.72;;;13.61;51.59
47785;BME280;35233;55.686;37.848;2023-04-30T02:05:57;100195.13;;;13.59;50.83
47785;BME280;35233;55.686;37.848;2023-04-30T02:08:23;100191.50;;;13.62;51.13
47785;BME280;35233;55.686;37.848;2023-04-30T02:10:48;100187.16;;;13.59;51.17
47785;BME280;35233;55.686;37.848;2023-04-30T02:13:14;100182.75;;;13.58;50.97
47785;BME280;35233;55.686;37.848;2023-04-30T02:15:40;100182.66;;;13.61;51.02
47785;BME280;35233;55.686;37.848;2023-04-30T02:18:05;100179.22;;;13.57;51.42
47785;BME280;35233;55.686;37.848;2023-04-30T02:20:30;100184.50;;;13.59;51.00
47785;BME280;35233;55.686;37.848;2023-04-30T02:22:56;100166.81;;;13.58;51.26
47785;BME280;35233;55.686;37.848;2023-04-30T02:25:22;100172.94;;;13.62;51.47
47785;BME280;35233;55.686;37.848;2023-04-30T02:27:47;100164.06;;;13.61;50.51
47785;BME280;35233;55.686;37.848;2023-04-30T02:30:14;100162.34;;;13.60;51.14
47785;BME280;35233;55.686;37.848;2023-04-30T02:32:40;100164.97;;;13.62;50.74
47785;BME280;35233;55.686;37.848;2023-04-30T02:35:05;100157.91;;;13.61;50.76
47785;BME280;35233;55.686;37.848;2023-04-30T02:37:31;100155.22;;;13.62;50.40
47785;BME280;35233;55.686;37.848;2023-04-30T02:39:56;100156.00;;;13.64;50.91
47785;BME280;35233;55.686;37.848;2023-04-30T02:42:22;100151.78;;;13.58;51.41
47785;BME280;35233;55.686;37.848;2023-04-30T02:44:48;100142.91;;;13.59;50.43
47785;BME280;35233;55.686;37.848;2023-04-30T02:47:13;100148.94;;;13.65;51.18
47785;BME280;35233;55.686;37.848;2023-04-30T02:49:39;100141.09;;;13.60;50.89
47785;BME280;35233;55.686;37.848;2023-04-30T02:52:04;100138.41;;;13.62;50.94
47785;BME280;35233;55.686;37.848;2023-04-30T02:54:31;100143.53;;;13.68;51.06
47785;BME280;35233;55.686;37.848;2023-04-30T02:56:56;100152.34;;;13.68;50.84
47785;BME280;35233;55.686;37.848;2023-04-30T02:59:22;100159.44;;;13.68;51.23
47785;BME280;35233;55.686;37.848;2023-04-30T03:01:47;100162.91;;;13.70;50.43
47785;BME280;35233;55.686;37.848;2023-04-30T03:04:13;100141.22;;;13.57;51.01
47785;BME280;35233;55.686;37.848;2023-04-30T03:06:38;100154.94;;;13.70;50.25
47785;BME280;35233;55.686;37.848;2023-04-30T03:09:04;100154.94;;;13.70;50.25
47785;BME280;35233;55.686;37.848;2023-04-30T03:11:29;100161.13;;;13.70;50.73
47785;BME280;35233;55.686;37.848;2023-04-30T03:13:55;100154.94;;;13.70;51.12
47785;BME280;35233;55.686;37.848;2023-04-30T03:16:20;100160.22;;;13.71;50.90
47785;BME280;35233;55.686;37.848;2023-04-30T03:18:47;100157.59;;;13.70;50.55
47785;BME280;35233;55.686;37.848;2023-04-30T03:21:12;100159.38;;;13.69;50.86
47785;BME280;35233;55.686;37.848;2023-04-30T03:23:38;100164.47;;;13.75;50.71
47785;BME280;35233;55.686;37.848;2023-04-30T03:26:04;100167.09;;;13.77;50.75
47785;BME280;35233;55.686;37.848;2023-04-30T03:28:29;100148.63;;;13.74;50.02
47785;BME280;35233;55.686;37.848;2023-04-30T03:30:55;100141.47;;;13.76;50.50
47785;BME280;35233;55.686;37.848;2023-04-30T03:33:20;100157.13;;;13.84;50.41
47785;BME280;35233;55.686;37.848;2023-04-30T03:35:46;100141.19;;;13.84;50.30
47785;BME280;35233;55.686;37.848;2023-04-30T03:38:11;100140.34;;;13.83;50.08
47785;BME280;35233;55.686;37.848;2023-04-30T03:40:37;100136.66;;;13.87;50.35
47785;BME280;35233;55.686;37.848;2023-04-30T03:43:02;100138.41;;;13.88;50.74
47785;BME280;35233;55.686;37.848;2023-04-30T03:45:28;100123.38;;;13.87;49.78
47785;BME280;35233;55.686;37.848;2023-04-30T03:47:53;100129.56;;;13.88;50.43
47785;BME280;35233;55.686;37.848;2023-04-30T03:50:19;100118.88;;;13.89;50.41
47785;BME280;35233;55.686;37.848;2023-04-30T03:52:45;100124.91;;;13.94;50.24
47785;BME280;35233;55.686;37.848;2023-04-30T03:55:10;100126.50;;;14.00;49.98
47785;BME280;35233;55.686;37.848;2023-04-30T03:57:37;100118.44;;;14.01;50.21
47785;BME280;35233;55.686;37.848;2023-04-30T04:00:04;100120.09;;;14.06;50.11
47785;BME280;35233;55.686;37.848;2023-04-30T04:02:33;100115.56;;;14.08;50.13
47785;BME280;35233;55.686;37.848;2023-04-30T04:04:59;100114.56;;;14.12;49.87
47785;BME280;35233;55.686;37.848;2023-04-30T04:07:24;100118.03;;;14.14;49.89
47785;BME280;35233;55.686;37.848;2023-04-30T04:09:50;100114.28;;;14.19;49.12
47785;BME280;35233;55.686;37.848;2023-04-30T04:12:15;100108.06;;;14.20;49.69
47785;BME280;35233;55.686;37.848;2023-04-30T04:14:41;100116.78;;;14.24;49.36
47785;BME280;35233;55.686;37.848;2023-04-30T04:17:06;100115.09;;;14.21;49.42
47785;BME280;35233;55.686;37.848;2023-04-30T04:19:32;100118.56;;;14.23;49.38
47785;BME280;35233;55.686;37.848;2023-04-30T04:21:57;100111.41;;;14.25;49.46
47785;BME280;35233;55.686;37.848;2023-04-30T04:24:24;100108.69;;;14.27;49.44
47785;BME280;35233;55.686;37.848;2023-04-30T04:26:49;100114.00;;;14.27;49.60
47785;BME280;35233;55.686;37.848;2023-04-30T04:29:15;100112.28;;;14.26;49.78
47785;BME280;35233;55.686;37.848;2023-04-30T04:31:40;100102.34;;;14.31;49.40
47785;BME280;35233;55.686;37.848;2023-04-30T04:34:07;100107.69;;;14.31;49.56
47785;BME280;35233;55.686;37.848;2023-04-30T04:36:32;100104.00;;;14.34;49.61
47785;BME280;35233;55.686;37.848;2023-04-30T04:38:58;100102.19;;;14.36;49.07
47785;BME280;35233;55.686;37.848;2023-04-30T04:41:30;100098.28;;;14.46;49.09
47785;BME280;35233;55.686;37.848;2023-04-30T04:44:02;100103.41;;;14.50;49.12
47785;BME280;35233;55.686;37.848;2023-04-30T04:46:29;100104.94;;;14.58;48.35
47785;BME280;35233;55.686;37.848;2023-04-30T04:48:56;100098.69;;;14.59;48.78
47785;BME280;35233;55.686;37.848;2023-04-30T04:51:21;100098.47;;;14.65;48.47
47785;BME280;35233;55.686;37.848;2023-04-30T04:53:47;100099.16;;;14.70;48.45
47785;BME280;35233;55.686;37.848;2023-04-30T04:56:12;100102.69;;;14.70;48.49
47785;BME280;35233;55.686;37.848;2023-04-30T04:58:38;100092.75;;;14.76;48.31
47785;BME280;35233;55.686;37.848;2023-04-30T05:01:04;100095.16;;;14.82;48.24
47785;BME280;35233;55.686;37.848;2023-04-30T05:03:31;100091.53;;;14.84;48.33
47785;BME280;35233;55.686;37.848;2023-04-30T05:05:57;100102.09;;;14.86;48.04
47785;BME280;35233;55.686;37.848;2023-04-30T05:08:23;100090.34;;;14.91;47.91
47785;BME280;35233;55.686;37.848;2023-04-30T05:10:49;100095.66;;;14.91;48.08
47785;BME280;35233;55.686;37.848;2023-04-30T05:13:14;100088.50;;;14.93;47.59
47785;BME280;35233;55.686;37.848;2023-04-30T05:15:40;100083.22;;;14.92;47.70
47785;BME280;35233;55.686;37.848;2023-04-30T05:18:05;100074.25;;;14.94;47.73
47785;BME280;35233;55.686;37.848;2023-04-30T05:20:31;100074.09;;;14.99;47.73
47785;BME280;35233;55.686;37.848;2023-04-30T05:22:56;100081.88;;;15.04;47.45
47785;BME280;35233;55.686;37.848;2023-04-30T05:25:21;100080.16;;;15.03;47.72
47785;BME280;35233;55.686;37.848;2023-04-30T05:27:47;100071.13;;;15.07;47.63
47785;BME280;35233;55.686;37.848;2023-04-30T05:30:13;100077.00;;;15.15;47.58
47785;BME280;35233;55.686;37.848;2023-04-30T05:32:40;100072.66;;;15.12;47.31
47785;BME280;35233;55.686;37.848;2023-04-30T05:35:06;100082.31;;;15.15;47.36
47785;BME280;35233;55.686;37.848;2023-04-30T05:37:32;100062.81;;;15.14;47.25
47785;BME280;35233;55.686;37.848;2023-04-30T05:39:57;100069.81;;;15.17;47.15
47785;BME280;35233;55.686;37.848;2023-04-30T05:42:23;100067.00;;;15.22;47.22
47785;BME280;35233;55.686;37.848;2023-04-30T05:44:48;100068.59;;;15.26;47.18
47785;BME280;35233;55.686;37.848;2023-04-30T05:47:14;100059.66;;;15.27;46.95
47785;BME280;35233;55.686;37.848;2023-04-30T05:49:39;100063.88;;;15.32;47.30
47785;BME280;35233;55.686;37.848;2023-04-30T05:52:05;100071.59;;;15.38;46.94
47785;BME280;35233;55.686;37.848;2023-04-30T05:54:31;100069.56;;;15.45;46.93
47785;BME280;35233;55.686;37.848;2023-04-30T05:56:56;100060.63;;;15.46;46.70
47785;BME280;35233;55.686;37.848;2023-04-30T05:59:22;100071.88;;;15.53;46.75
47785;BME280;35233;55.686;37.848;2023-04-30T06:01:47;100072.56;;;15.58;46.80
47785;BME280;35233;55.686;37.848;2023-04-30T06:04:13;100078.63;;;15.61;46.37
47785;BME280;35233;55.686;37.848;2023-04-30T06:06:38;100080.28;;;15.64;46.16
47785;BME280;35233;55.686;37.848;2023-04-30T06:09:04;100081.06;;;15.68;46.04
47785;BME280;35233;55.686;37.848;2023-04-30T06:11:29;100081.81;;;15.71;46.42
47785;BME280;35233;55.686;37.848;2023-04-30T06:13:55;100075.41;;;15.75;46.39
47785;BME280;35233;55.686;37.848;2023-04-30T06:16:21;100087.59;;;15.81;45.93
47785;BME280;35233;55.686;37.848;2023-04-30T06:18:46;100076.69;;;15.87;46.29
47785;BME280;35233;55.686;37.848;2023-04-30T06:21:13;100085.25;;;15.94;46.31
47785;BME280;35233;55.686;37.848;2023-04-30T06:23:39;100084.28;;;15.96;45.82
47785;BME280;35233;55.686;37.848;2023-04-30T06:26:04;100070.94;;;15.96;45.82
47785;BME280;35233;55.686;37.848;2023-04-30T06:28:30;100079.34;;;16.07;45.80
47785;BME280;35233;55.686;37.848;2023-04-30T06:30:55;100074.09;;;16.06;45.70
47785;BME280;35233;55.686;37.848;2023-04-30T06:33:21;100071.28;;;16.09;45.38
47785;BME280;35233;55.686;37.848;2023-04-30T06:35:47;100068.41;;;16.14;45.45
47785;BME280;35233;55.686;37.848;2023-04-30T06:38:13;100067.41;;;16.16;45.70
47785;BME280;35233;55.686;37.848;2023-04-30T06:40:38;100080.53;;;16.21;45.19
47785;BME280;35233;55.686;37.848;2023-04-30T06:43:04;100075.00;;;16.25;45.27
47785;BME280;35233;55.686;37.848;2023-04-30T06:45:30;100075.78;;;16.27;45.33
47785;BME280;35233;55.686;37.848;2023-04-30T06:47:55;100059.84;;;16.26;45.06
47785;BME280;35233;55.686;37.848;2023-04-30T06:50:21;100069.31;;;16.33;45.23
47785;BME280;35233;55.686;37.848;2023-04-30T06:52:47;100063.91;;;16.35;45.14
47785;BME280;35233;55.686;37.848;2023-04-30T06:55:12;100059.09;;;16.43;45.03
47785;BME280;35233;55.686;37.848;2023-04-30T06:57:38;100062.38;;;16.49;45.13
47785;BME280;35233;55.686;37.848;2023-04-30T07:00:07;100052.59;;;16.48;45.06
47785;BME280;35233;55.686;37.848;2023-04-30T07:02:33;100042.53;;;16.55;45.02
47785;BME280;35233;55.686;37.848;2023-04-30T07:04:58;100048.59;;;16.59;45.00
47785;BME280;35233;55.686;37.848;2023-04-30T07:07:24;100041.44;;;16.59;45.12
47785;BME280;35233;55.686;37.848;2023-04-30T07:09:49;100043.13;;;16.62;44.96
47785;BME280;35233;55.686;37.848;2023-04-30T07:12:15;100034.03;;;16.66;44.73
47785;BME280;35233;55.686;37.848;2023-04-30T07:14:40;100035.63;;;16.70;44.32
47785;BME280;35233;55.686;37.848;2023-04-30T07:17:06;100022.28;;;16.70;44.95
47785;BME280;35233;55.686;37.848;2023-04-30T07:19:32;100025.53;;;16.77;44.72
47785;BME280;35233;55.686;37.848;2023-04-30T07:21:57;100018.34;;;16.79;44.69
47785;BME280;35233;55.686;37.848;2023-04-30T07:24:22;100025.25;;;16.83;44.50
47785;BME280;35233;55.686;37.848;2023-04-30T07:26:48;100007.78;;;16.75;44.56
47785;BME280;35233;55.686;37.848;2023-04-30T07:29:13;100006.50;;;16.84;44.74
47785;BME280;35233;55.686;37.848;2023-04-30T07:31:39;99999.28;;;16.86;44.38
47785;BME280;35233;55.686;37.848;2023-04-30T07:34:04;100001.59;;;16.94;44.16
47785;BME280;35233;55.686;37.848;2023-04-30T07:36:30;99998.66;;;16.98;44.61
47785;BME280;35233;55.686;37.848;2023-04-30T07:38:56;99987.88;;;17.02;44.21
47785;BME280;35233;55.686;37.848;2023-04-30T07:41:23;99985.81;;;17.07;44.21
47785;BME280;35233;55.686;37.848;2023-04-30T07:43:49;99979.31;;;17.12;44.31
47785;BME280;35233;55.686;37.848;2023-04-30T07:46:14;99968.31;;;17.18;44.08
47785;BME280;35233;55.686;37.848;2023-04-30T07:48:40;99961.91;;;17.23;43.63
47785;BME280;35233;55.686;37.848;2023-04-30T07:51:05;99956.41;;;17.26;43.78
47785;BME280;35233;55.686;37.848;2023-04-30T07:53:31;99932.75;;;17.18;43.57
47785;BME280;35233;55.686;37.848;2023-04-30T07:55:56;99942.41;;;17.20;44.24
47785;BME280;35233;55.686;37.848;2023-04-30T07:58:21;99941.47;;;17.22;43.98
47785;BME280;35233;55.686;37.848;2023-04-30T08:00:47;99929.94;;;17.21;44.29
47785;BME280;35233;55.686;37.848;2023-04-30T08:03:13;99936.28;;;17.18;44.21
47785;BME280;35233;55.686;37.848;2023-04-30T08:05:38;99934.34;;;17.22;44.31
47785;BME280;35233;55.686;37.848;2023-04-30T08:08:05;99931.09;;;17.15;44.49
47785;BME280;35233;55.686;37.848;2023-04-30T08:10:30;99917.84;;;17.14;43.91
47785;BME280;35233;55.686;37.848;2023-04-30T08:12:56;99908.81;;;17.16;43.98
47785;BME280;35233;55.686;37.848;2023-04-30T08:15:21;99901.72;;;17.15;44.17
47785;BME280;35233;55.686;37.848;2023-04-30T08:17:50;99901.66;;;17.17;44.53
47785;BME280;35233;55.686;37.848;2023-04-30T08:20:17;99883.03;;;17.15;44.24
47785;BME280;35233;55.686;37.848;2023-04-30T08:22:44;99879.63;;;17.13;44.50
47785;BME280;35233;55.686;37.848;2023-04-30T08:25:12;99869.84;;;17.12;44.27
47785;BME280;35233;55.686;37.848;2023-04-30T08:27:38;99882.72;;;17.22;44.60
47785;BME280;35233;55.686;37.848;2023-04-30T08:30:07;99867.66;;;17.20;44.49
47785;BME280;35233;55.686;37.848;2023-04-30T08:32:36;99872.22;;;17.18;44.38
47785;BME280;35233;55.686;37.848;2023-04-30T08:35:05;99863.28;;;17.19;44.39
47785;BME280;35233;55.686;37.848;2023-04-30T08:37:31;99868.44;;;17.23;43.97
47785;BME280;35233;55.686;37.848;2023-04-30T08:39:57;99852.50;;;17.21;44.08
47785;BME280;35233;55.686;37.848;2023-04-30T08:42:25;99851.56;;;17.22;44.08
47785;BME280;35233;55.686;37.848;2023-04-30T08:44:54;99852.75;;;17.16;44.09
47785;BME280;35233;55.686;37.848;2023-04-30T08:47:19;99844.91;;;17.13;44.53
47785;BME280;35233;55.686;37.848;2023-04-30T08:49:46;99844.28;;;17.08;44.69
47785;BME280;35233;55.686;37.848;2023-04-30T08:52:11;99838.09;;;17.08;44.82
47785;BME280;35233;55.686;37.848;2023-04-30T08:54:37;99840.66;;;17.09;44.22
47785;BME280;35233;55.686;37.848;2023-04-30T08:57:02;99833.44;;;17.11;44.15
47785;BME280;35233;55.686;37.848;2023-04-30T08:59:28;99825.34;;;17.13;44.29
47785;BME280;35233;55.686;37.848;2023-04-30T09:01:54;99823.78;;;17.09;44.87
47785;BME280;35233;55.686;37.848;2023-04-30T09:04:20;99823.78;;;17.09;44.51
47785;BME280;35233;55.686;37.848;2023-04-30T09:06:45;99810.84;;;17.01;45.06
47785;BME280;35233;55.686;37.848;2023-04-30T09:09:15;99808.25;;;17.00;44.74
47785;BME280;35233;55.686;37.848;2023-04-30T09:11:41;99804.72;;;16.99;44.90
47785;BME280;35233;55.686;37.848;2023-04-30T09:14:07;99807.47;;;16.97;44.63
47785;BME280;35233;55.686;37.848;2023-04-30T09:16:49;99808.09;;;17.03;44.89
47785;BME280;35233;55.686;37.848;2023-04-30T09:19:26;99803.56;;;17.05;44.46
47785;BME280;35233;55.686;37.848;2023-04-30T09:21:52;99799.94;;;17.06;44.81
47785;BME280;35233;55.686;37.848;2023-04-30T09:24:18;99796.41;;;17.05;44.44
47785;BME280;35233;55.686;37.848;2023-04-30T09:26:44;99785.78;;;17.04;45.17
47785;BME280;35233;55.686;37.848;2023-04-30T09:29:12;99781.16;;;17.07;44.74
47785;BME280;35233;55.686;37.848;2023-04-30T09:31:41;99785.41;;;17.11;44.39
47785;BME280;35233;55.686;37.848;2023-04-30T09:34:06;99784.91;;;17.20;44.14
47785;BME280;35233;55.686;37.848;2023-04-30T09:36:32;99774.22;;;17.20;44.63
47785;BME280;35233;55.686;37.848;2023-04-30T09:42:06;99765.53;;;17.17;44.55
47785;BME280;35233;55.686;37.848;2023-04-30T09:44:35;99752.94;;;17.19;44.38
47785;BME280;35233;55.686;37.848;2023-04-30T09:47:01;99752.88;;;17.20;44.40
47785;BME280;35233;55.686;37.848;2023-04-30T09:49:27;99758.81;;;17.26;44.45
47785;BME280;35233;55.686;37.848;2023-04-30T09:52:00;99760.63;;;17.25;44.07
47785;BME280;35233;55.686;37.848;2023-04-30T09:54:29;99759.06;;;17.21;44.33
47785;BME280;35233;55.686;37.848;2023-04-30T09:56:58;99746.75;;;17.18;44.78
47785;BME280;35233;55.686;37.848;2023-04-30T09:59:32;99731.75;;;17.16;44.69
47785;BME280;35233;55.686;37.848;2023-04-30T10:02:04;99740.31;;;17.23;44.14
47785;BME280;35233;55.686;37.848;2023-04-30T10:04:34;99737.63;;;17.23;44.42
47785;BME280;35233;55.686;37.848;2023-04-30T10:07:03;99735.13;;;17.19;44.81
47785;BME280;35233;55.686;37.848;2023-04-30T10:09:37;99729.00;;;17.17;44.31
47785;BME280;35233;55.686;37.848;2023-04-30T10:12:07;99734.41;;;17.16;44.63
47785;BME280;35233;55.686;37.848;2023-04-30T10:14:34;99742.53;;;17.14;44.83
47785;BME280;35233;55.686;37.848;2023-04-30T10:17:08;99750.25;;;17.19;44.86
47785;BME280;35233;55.686;37.848;2023-04-30T10:19:38;99761.22;;;17.14;44.55
47785;BME280;35233;55.686;37.848;2023-04-30T10:22:06;99751.56;;;17.12;44.70
47785;BME280;35233;55.686;37.848;2023-04-30T10:24:32;99760.59;;;17.09;44.95
47785;BME280;35233;55.686;37.848;2023-04-30T10:26:58;99758.88;;;17.08;44.58
47785;BME280;35233;55.686;37.848;2023-04-30T10:29:24;99758.06;;;17.06;44.89
47785;BME280;35233;55.686;37.848;2023-04-30T10:31:50;99760.84;;;17.05;45.03
47785;BME280;35233;55.686;37.848;2023-04-30T10:34:44;99749.03;;;17.09;44.84
47785;BME280;35233;55.686;37.848;2023-04-30T10:40:00;99753.53;;;17.08;44.82
47785;BME280;35233;55.686;37.848;2023-04-30T10:42:26;99752.56;;;17.09;44.61
47785;BME280;35233;55.686;37.848;2023-04-30T10:44:52;99751.56;;;17.12;44.70
47785;BME280;35233;55.686;37.848;2023-04-30T10:47:17;99751.31;;;17.16;44.98
47785;BME280;35233;55.686;37.848;2023-04-30T10:49:48;99759.22;;;17.18;45.17
47785;BME280;35233;55.686;37.848;2023-04-30T10:52:25;99743.91;;;17.22;44.57
47785;BME280;35233;55.686;37.848;2023-04-30T10:54:51;99738.50;;;17.23;44.71
47785;BME280;35233;55.686;37.848;2023-04-30T10:57:39;99743.72;;;17.25;44.90
47785;BME280;35233;55.686;37.848;2023-04-30T11:05:35;99734.75;;;17.10;44.86
47785;BME280;35233;55.686;37.848;2023-04-30T11:08:02;99737.34;;;17.11;45.15
47785;BME280;35233;55.686;37.848;2023-04-30T11:10:32;99722.53;;;17.06;45.14
47785;BME280;35233;55.686;37.848;2023-04-30T11:13:03;99724.56;;;17.01;45.08
47785;BME280;35233;55.686;37.848;2023-04-30T11:15:40;99711.31;;;16.99;44.91
47785;BME280;35233;55.686;37.848;2023-04-30T11:18:07;99712.50;;;16.93;44.94
47785;BME280;35233;55.686;37.848;2023-04-30T11:20:38;99701.84;;;16.93;45.11
47785;BME280;35233;55.686;37.848;2023-04-30T11:23:24;99684.97;;;16.93;45.31
47785;BME280;35233;55.686;37.848;2023-04-30T11:26:09;99678.75;;;16.92;45.24
47785;BME280;35233;55.686;37.848;2023-04-30T11:28:36;99666.19;;;16.94;45.34
47785;BME280;35233;55.686;37.848;2023-04-30T11:31:20;99670.66;;;16.94;45.11
47785;BME280;35233;55.686;37.848;2023-04-30T11:33:46;99668.06;;;16.92;45.35
47785;BME280;35233;55.686;37.848;2023-04-30T11:36:13;99659.84;;;16.97;45.62
47785;BME280;35233;55.686;37.848;2023-04-30T11:38:39;99644.69;;;16.97;45.44
47785;BME280;35233;55.686;37.848;2023-04-30T11:41:05;99650.81;;;17.00;45.36
47785;BME280;35233;55.686;37.848;2023-04-30T11:43:32;99651.72;;;16.98;45.48
47785;BME280;35233;55.686;37.848;2023-04-30T11:46:16;99648.47;;;16.93;45.41
47785;BME280;35233;55.686;37.848;2023-04-30T11:48:46;99649.66;;;16.88;45.25
47785;BME280;35233;55.686;37.848;2023-04-30T11:51:15;99651.03;;;16.79;45.51
47785;BME280;35233;55.686;37.848;2023-04-30T11:53:42;99664.25;;;16.81;46.01
47785;BME280;35233;55.686;37.848;2023-04-30T11:56:07;99661.69;;;16.79;45.72
47785;BME280;35233;55.686;37.848;2023-04-30T11:58:36;99657.38;;;16.77;45.95
47785;BME280;35233;55.686;37.848;2023-04-30T12:01:06;99651.19;;;16.76;46.06
47785;BME280;35233;55.686;37.848;2023-04-30T12:03:40;99631.25;;;16.66;45.97
47785;BME280;35233;55.686;37.848;2023-04-30T12:06:09;99642.53;;;16.71;46.38
47785;BME280;35233;55.686;37.848;2023-04-30T12:08:34;99633.75;;;16.69;46.07
47785;BME280;35233;55.686;37.848;2023-04-30T12:11:00;99632.03;;;16.68;46.72
47785;BME280;35233;55.686;37.848;2023-04-30T12:13:25;99628.56;;;16.66;46.26
47785;BME280;35233;55.686;37.848;2023-04-30T12:15:58;99627.94;;;16.61;46.29
47785;BME280;35233;55.686;37.848;2023-04-30T12:18:24;99630.53;;;16.62;46.54
47785;BME280;35233;55.686;37.848;2023-04-30T12:20:50;99642.34;;;16.58;46.80
47785;BME280;35233;55.686;37.848;2023-04-30T12:23:16;99633.72;;;16.53;46.79
47785;BME280;35233;55.686;37.848;2023-04-30T12:25:42;99642.63;;;16.52;46.45
47785;BME280;35233;55.686;37.848;2023-04-30T12:28:09;99634.72;;;16.50;46.79
47785;BME280;35233;55.686;37.848;2023-04-30T12:30:53;99648.47;;;16.43;47.12
47785;BME280;35233;55.686;37.848;2023-04-30T12:33:19;99655.59;;;16.42;47.12
47785;BME280;35233;55.686;37.848;2023-04-30T12:35:44;99655.84;;;16.38;47.57
47785;BME280;35233;55.686;37.848;2023-04-30T12:38:12;99660.56;;;16.33;47.03
47785;BME280;35233;55.686;37.848;2023-04-30T12:40:46;99650.91;;;16.30;47.36
47785;BME280;35233;55.686;37.848;2023-04-30T12:43:14;99654.59;;;16.27;48.02
47785;BME280;35233;55.686;37.848;2023-04-30T12:45:49;99662.66;;;16.26;47.43
47785;BME280;35233;55.686;37.848;2023-04-30T12:48:23;99652.16;;;16.23;47.32
47785;BME280;35233;55.686;37.848;2023-04-30T12:50:54;99646.81;;;16.23;47.38
47785;BME280;35233;55.686;37.848;2023-04-30T12:53:20;99646.13;;;16.19;47.66
47785;BME280;35233;55.686;37.848;2023-04-30T12:58:37;99656.88;;;16.18;47.53
47785;BME280;35233;55.686;37.848;2023-04-30T13:01:03;99643.88;;;16.12;47.96
47785;BME280;35233;55.686;37.848;2023-04-30T13:03:29;99649.91;;;16.15;47.80
47785;BME280;35233;55.686;37.848;2023-04-30T13:06:13;99652.56;;;16.15;47.85
47785;BME280;35233;55.686;37.848;2023-04-30T13:08:38;99655.22;;;16.15;47.32
47785;BME280;35233;55.686;37.848;2023-04-30T13:11:05;99649.97;;;16.14;47.82
47785;BME280;35233;55.686;37.848;2023-04-30T13:13:32;99648.16;;;16.14;47.51
47785;BME280;35233;55.686;37.848;2023-04-30T13:15:58;99655.22;;;16.15;47.71
47785;BME280;35233;55.686;37.848;2023-04-30T13:18:23;99627.56;;;16.00;47.88